sensor_id;sensor_type;location;lat;lon;timestamp;temperature;humidity
44990;DHT22;30723;51.206;3.326;2023-01-26T00:01:18;3.30;99.90
44990;DHT22;30723;51.206;3.326;2023-01-26T00:03:45;3.20;99.90
44990;DHT22;30723;51.206;3.326;2023-01-26T00:06:14;3.20;99.90
44990;DHT22;30723;51.206;3.326;2023-01-26T00:09:00;3.30;99.90
44990;DHT22;30723;51.206;3.326;2023-01-26T00:11:28;3.20;99.90
44990;DHT22;30723;51.206;3.326;2023-01-26T00:13:57;3.20;99.90
44990;DHT22;30723;51.206;3.326;2023-01-26T00:16:25;3.20;99.90
44990;DHT22;30723;51.206;3.326;2023-01-26T00:18:52;3.20;99.90
44990;DHT22;30723;51.206;3.326;2023-01-26T00:21:21;3.20;99.90
44990;DHT22;30723;51.206;3.326;2023-01-26T00:23:48;3.20;99.90
44990;DHT22;30723;51.206;3.326;2023-01-26T00:26:37;3.30;99.90
44990;DHT22;30723;51.206;3.326;2023-01-26T00:29:03;3.30;99.90
44990;DHT22;30723;51.206;3.326;2023-01-26T00:31:30;3.40;99.90
44990;DHT22;30723;51.206;3.326;2023-01-26T00:33:56;3.40;99.90
44990;DHT22;30723;51.206;3.326;2023-01-26T00:36:23;3.40;99.90
44990;DHT22;30723;51.206;3.326;2023-01-26T00:38:49;3.30;99.90
44990;DHT22;30723;51.206;3.326;2023-01-26T00:41:16;3.30;99.90
44990;DHT22;30723;51.206;3.326;2023-01-26T00:44:01;3.30;99.90
44990;DHT22;30723;51.206;3.326;2023-01-26T00:46:27;3.40;99.90
44990;DHT22;30723;51.206;3.326;2023-01-26T00:48:54;3.40;99.90
44990;DHT22;30723;51.206;3.326;2023-01-26T00:51:20;3.30;99.90
44990;DHT22;30723;51.206;3.326;2023-01-26T00:53:45;3.30;99.90
44990;DHT22;30723;51.206;3.326;2023-01-26T00:56:12;3.40;99.90
44990;DHT22;30723;51.206;3.326;2023-01-26T00:58:40;3.30;99.90
44990;DHT22;30723;51.206;3.326;2023-01-26T01:01:07;3.40;99.90
44990;DHT22;30723;51.206;3.326;2023-01-26T01:03:33;3.40;99.90
44990;DHT22;30723;51.206;3.326;2023-01-26T01:06:00;3.40;99.90
44990;DHT22;30723;51.206;3.326;2023-01-26T01:08:27;3.50;99.90
44990;DHT22;30723;51.206;3.326;2023-01-26T01:11:04;3.50;99.90
44990;DHT22;30723;51.206;3.326;2023-01-26T01:13:31;3.40;99.90
44990;DHT22;30723;51.206;3.326;2023-01-26T01:15:57;3.40;99.90
44990;DHT22;30723;51.206;3.326;2023-01-26T01:18:23;3.40;99.90
44990;DHT22;30723;51.206;3.326;2023-01-26T01:20:49;3.40;99.90
44990;DHT22;30723;51.206;3.326;2023-01-26T01:23:15;3.40;99.90
44990;DHT22;30723;51.206;3.326;2023-01-26T01:25:41;3.40;99.90
44990;DHT22;30723;51.206;3.326;2023-01-26T01:28:08;3.40;99.90
44990;DHT22;30723;51.206;3.326;2023-01-26T01:30:34;3.40;99.90
44990;DHT22;30723;51.206;3.326;2023-01-26T01:33:02;3.50;99.90
44990;DHT22;30723;51.206;3.326;2023-01-26T01:35:29;3.50;99.90
44990;DHT22;30723;51.206;3.326;2023-01-26T01:37:56;3.30;99.90
44990;DHT22;30723;51.206;3.326;2023-01-26T01:40:22;3.30;99.90
44990;DHT22;30723;51.206;3.326;2023-01-26T01:42:49;3.40;99.90
44990;DHT22;30723;51.206;3.326;2023-01-26T01:48:12;3.30;99.90
44990;DHT22;30723;51.206;3.326;2023-01-26T01:50:40;3.20;99.90
44990;DHT22;30723;51.206;3.326;2023-01-26T01:53:12;3.40;99.90
44990;DHT22;30723;51.206;3.326;2023-01-26T01:55:40;3.40;99.90
44990;DHT22;30723;51.206;3.326;2023-01-26T01:58:06;3.30;99.90
44990;DHT22;30723;51.206;3.326;2023-01-26T02:00:34;3.40;99.90
44990;DHT22;30723;51.206;3.326;2023-01-26T02:03:05;3.40;99.90
44990;DHT22;30723;51.206;3.326;2023-01-26T02:08:12;3.40;99.90
44990;DHT22;30723;51.206;3.326;2023-01-26T02:10:39;3.30;99.90
44990;DHT22;30723;51.206;3.326;2023-01-26T02:13:07;3.30;99.90
44990;DHT22;30723;51.206;3.326;2023-01-26T02:15:34;3.40;99.90
44990;DHT22;30723;51.206;3.326;2023-01-26T02:18:02;3.40;99.90
44990;DHT22;30723;51.206;3.326;2023-01-26T02:20:36;3.40;99.90
44990;DHT22;30723;51.206;3.326;2023-01-26T02:23:35;3.50;99.90
44990;DHT22;30723;51.206;3.326;2023-01-26T02:26:14;3.40;99.90
44990;DHT22;30723;51.206;3.326;2023-01-26T02:28:42;3.50;99.90
44990;DHT22;30723;51.206;3.326;2023-01-26T02:31:10;3.50;99.90
44990;DHT22;30723;51.206;3.326;2023-01-26T02:33:39;3.60;99.90
44990;DHT22;30723;51.206;3.326;2023-01-26T02:36:09;3.60;99.90
44990;DHT22;30723;51.206;3.326;2023-01-26T02:38:42;3.60;99.90
44990;DHT22;30723;51.206;3.326;2023-01-26T02:41:12;3.60;99.90
44990;DHT22;30723;51.206;3.326;2023-01-26T02:44:01;3.60;99.90
44990;DHT22;30723;51.206;3.326;2023-01-26T02:46:29;3.60;99.90
44990;DHT22;30723;51.206;3.326;2023-01-26T02:48:55;3.60;99.90
44990;DHT22;30723;51.206;3.326;2023-01-26T02:51:41;3.70;99.90
44990;DHT22;30723;51.206;3.326;2023-01-26T02:54:07;3.60;99.90
44990;DHT22;30723;51.206;3.326;2023-01-26T02:56:33;3.60;99.90
44990;DHT22;30723;51.206;3.326;2023-01-26T02:59:06;3.60;99.90
44990;DHT22;30723;51.206;3.326;2023-01-26T03:01:32;3.70;99.90
44990;DHT22;30723;51.206;3.326;2023-01-26T03:03:58;3.70;99.90
44990;DHT22;30723;51.206;3.326;2023-01-26T03:06:25;3.70;99.90
44990;DHT22;30723;51.206;3.326;2023-01-26T03:08:51;3.60;99.90
44990;DHT22;30723;51.206;3.326;2023-01-26T03:11:18;3.70;99.90
44990;DHT22;30723;51.206;3.326;2023-01-26T03:13:44;3.70;99.90
44990;DHT22;30723;51.206;3.326;2023-01-26T03:16:10;3.70;99.90
44990;DHT22;30723;51.206;3.326;2023-01-26T03:18:37;3.70;99.90
44990;DHT22;30723;51.206;3.326;2023-01-26T03:21:22;3.70;99.90
44990;DHT22;30723;51.206;3.326;2023-01-26T03:24:13;3.70;99.90
44990;DHT22;30723;51.206;3.326;2023-01-26T03:26:58;3.70;99.90
44990;DHT22;30723;51.206;3.326;2023-01-26T03:29:43;3.70;99.90
44990;DHT22;30723;51.206;3.326;2023-01-26T03:32:09;3.70;99.90
44990;DHT22;30723;51.206;3.326;2023-01-26T03:34:36;3.80;99.90
44990;DHT22;30723;51.206;3.326;2023-01-26T03:37:04;3.80;99.90
44990;DHT22;30723;51.206;3.326;2023-01-26T03:39:30;3.90;99.90
44990;DHT22;30723;51.206;3.326;2023-01-26T03:42:15;4.00;99.90
44990;DHT22;30723;51.206;3.326;2023-01-26T03:44:59;3.90;99.90
44990;DHT22;30723;51.206;3.326;2023-01-26T03:47:45;3.80;99.90
44990;DHT22;30723;51.206;3.326;2023-01-26T03:50:30;3.90;99.90
44990;DHT22;30723;51.206;3.326;2023-01-26T03:53:23;3.90;99.90
44990;DHT22;30723;51.206;3.326;2023-01-26T03:56:09;4.00;99.90
44990;DHT22;30723;51.206;3.326;2023-01-26T03:58:54;4.00;99.90
44990;DHT22;30723;51.206;3.326;2023-01-26T04:01:25;3.90;99.90
44990;DHT22;30723;51.206;3.326;2023-01-26T04:03:55;3.90;99.90
44990;DHT22;30723;51.206;3.326;2023-01-26T04:06:41;3.90;99.90
44990;DHT22;30723;51.206;3.326;2023-01-26T04:09:27;4.00;99.90
44990;DHT22;30723;51.206;3.326;2023-01-26T04:11:54;4.00;99.90
44990;DHT22;30723;51.206;3.326;2023-01-26T04:14:21;4.10;99.90
44990;DHT22;30723;51.206;3.326;2023-01-26T04:17:06;4.10;99.90
44990;DHT22;30723;51.206;3.326;2023-01-26T04:19:52;4.10;99.90
44990;DHT22;30723;51.206;3.326;2023-01-26T04:22:40;4.10;99.90
44990;DHT22;30723;51.206;3.326;2023-01-26T04:25:15;4.10;99.90
44990;DHT22;30723;51.206;3.326;2023-01-26T04:27:42;4.10;99.90
44990;DHT22;30723;51.206;3.326;2023-01-26T04:30:09;4.10;99.90
44990;DHT22;30723;51.206;3.326;2023-01-26T04:32:36;4.20;99.90
44990;DHT22;30723;51.206;3.326;2023-01-26T04:35:05;4.30;99.90
44990;DHT22;30723;51.206;3.326;2023-01-26T04:37:31;4.20;99.90
44990;DHT22;30723;51.206;3.326;2023-01-26T04:39:58;4.20;99.90
44990;DHT22;30723;51.206;3.326;2023-01-26T04:42:25;4.20;99.90
44990;DHT22;30723;51.206;3.326;2023-01-26T04:44:52;4.30;99.90
44990;DHT22;30723;51.206;3.326;2023-01-26T04:47:20;4.30;99.90
44990;DHT22;30723;51.206;3.326;2023-01-26T04:49:47;4.30;99.90
44990;DHT22;30723;51.206;3.326;2023-01-26T04:52:14;4.30;99.90
44990;DHT22;30723;51.206;3.326;2023-01-26T04:54:41;4.40;99.90
44990;DHT22;30723;51.206;3.326;2023-01-26T04:57:08;4.40;99.90
44990;DHT22;30723;51.206;3.326;2023-01-26T04:59:35;4.40;99.90
44990;DHT22;30723;51.206;3.326;2023-01-26T05:02:02;4.50;99.90
44990;DHT22;30723;51.206;3.326;2023-01-26T05:04:28;4.60;99.90
44990;DHT22;30723;51.206;3.326;2023-01-26T05:06:55;4.70;99.90
44990;DHT22;30723;51.206;3.326;2023-01-26T05:09:22;4.80;99.90
44990;DHT22;30723;51.206;3.326;2023-01-26T05:11:49;5.00;99.90
44990;DHT22;30723;51.206;3.326;2023-01-26T05:14:16;5.10;99.90
44990;DHT22;30723;51.206;3.326;2023-01-26T05:16:42;5.30;99.90
44990;DHT22;30723;51.206;3.326;2023-01-26T05:19:09;5.40;99.90
44990;DHT22;30723;51.206;3.326;2023-01-26T05:21:36;5.70;99.90
44990;DHT22;30723;51.206;3.326;2023-01-26T05:24:03;5.90;99.90
44990;DHT22;30723;51.206;3.326;2023-01-26T05:26:29;6.00;99.90
44990;DHT22;30723;51.206;3.326;2023-01-26T05:28:55;6.00;99.90
44990;DHT22;30723;51.206;3.326;2023-01-26T05:31:20;6.10;99.90
44990;DHT22;30723;51.206;3.326;2023-01-26T05:33:47;6.20;99.90
44990;DHT22;30723;51.206;3.326;2023-01-26T05:36:13;6.20;99.90
44990;DHT22;30723;51.206;3.326;2023-01-26T05:38:38;6.30;99.90
44990;DHT22;30723;51.206;3.326;2023-01-26T05:41:05;6.30;99.90
44990;DHT22;30723;51.206;3.326;2023-01-26T05:43:32;6.40;99.90
44990;DHT22;30723;51.206;3.326;2023-01-26T05:45:59;6.30;99.90
44990;DHT22;30723;51.206;3.326;2023-01-26T05:48:25;6.40;99.90
44990;DHT22;30723;51.206;3.326;2023-01-26T05:50:51;6.40;99.90
44990;DHT22;30723;51.206;3.326;2023-01-26T05:53:17;6.40;99.90
44990;DHT22;30723;51.206;3.326;2023-01-26T05:55:45;6.40;99.90
44990;DHT22;30723;51.206;3.326;2023-01-26T05:58:11;6.50;99.90
44990;DHT22;30723;51.206;3.326;2023-01-26T06:00:38;6.50;99.90
44990;DHT22;30723;51.206;3.326;2023-01-26T06:03:05;6.50;99.90
44990;DHT22;30723;51.206;3.326;2023-01-26T06:05:31;6.50;99.90
44990;DHT22;30723;51.206;3.326;2023-01-26T06:07:57;6.60;99.90
44990;DHT22;30723;51.206;3.326;2023-01-26T06:10:24;6.50;99.90
44990;DHT22;30723;51.206;3.326;2023-01-26T06:12:51;6.60;99.90
44990;DHT22;30723;51.206;3.326;2023-01-26T06:15:18;6.50;99.90
44990;DHT22;30723;51.206;3.326;2023-01-26T06:17:44;6.50;99.90
44990;DHT22;30723;51.206;3.326;2023-01-26T06:20:12;6.50;99.90
44990;DHT22;30723;51.206;3.326;2023-01-26T06:22:40;6.50;99.90
44990;DHT22;30723;51.206;3.326;2023-01-26T06:25:07;6.50;99.90
44990;DHT22;30723;51.206;3.326;2023-01-26T06:27:34;6.50;99.90
44990;DHT22;30723;51.206;3.326;2023-01-26T06:30:00;6.50;99.90
44990;DHT22;30723;51.206;3.326;2023-01-26T06:32:27;6.60;99.90
44990;DHT22;30723;51.206;3.326;2023-01-26T06:34:55;6.50;99.90
44990;DHT22;30723;51.206;3.326;2023-01-26T06:37:21;6.50;99.90
44990;DHT22;30723;51.206;3.326;2023-01-26T06:39:47;6.50;99.90
44990;DHT22;30723;51.206;3.326;2023-01-26T06:42:13;6.50;99.90
44990;DHT22;30723;51.206;3.326;2023-01-26T06:44:38;6.50;99.90
44990;DHT22;30723;51.206;3.326;2023-01-26T06:47:05;6.60;99.90
44990;DHT22;30723;51.206;3.326;2023-01-26T06:49:32;6.60;99.90
44990;DHT22;30723;51.206;3.326;2023-01-26T06:54:50;6.60;99.90
44990;DHT22;30723;51.206;3.326;2023-01-26T06:57:17;6.60;99.90
44990;DHT22;30723;51.206;3.326;2023-01-26T06:59:43;6.60;99.90
44990;DHT22;30723;51.206;3.326;2023-01-26T07:02:29;6.60;99.90
44990;DHT22;30723;51.206;3.326;2023-01-26T07:04:55;6.60;99.90
44990;DHT22;30723;51.206;3.326;2023-01-26T07:07:22;6.60;99.90
44990;DHT22;30723;51.206;3.326;2023-01-26T07:09:48;6.60;99.90
44990;DHT22;30723;51.206;3.326;2023-01-26T07:12:15;6.60;99.90
44990;DHT22;30723;51.206;3.326;2023-01-26T07:14:42;6.60;99.90
44990;DHT22;30723;51.206;3.326;2023-01-26T07:17:08;6.60;99.90
44990;DHT22;30723;51.206;3.326;2023-01-26T07:19:34;6.60;99.90
44990;DHT22;30723;51.206;3.326;2023-01-26T07:22:01;6.60;99.90
44990;DHT22;30723;51.206;3.326;2023-01-26T07:24:28;6.60;99.90
44990;DHT22;30723;51.206;3.326;2023-01-26T07:26:54;6.60;99.90
44990;DHT22;30723;51.206;3.326;2023-01-26T07:29:20;6.50;99.90
44990;DHT22;30723;51.206;3.326;2023-01-26T07:31:47;6.60;99.90
44990;DHT22;30723;51.206;3.326;2023-01-26T07:34:14;6.60;99.90
44990;DHT22;30723;51.206;3.326;2023-01-26T07:36:41;6.50;99.90
44990;DHT22;30723;51.206;3.326;2023-01-26T07:39:07;6.60;99.90
44990;DHT22;30723;51.206;3.326;2023-01-26T07:41:33;6.60;99.90
44990;DHT22;30723;51.206;3.326;2023-01-26T07:44:00;6.60;99.90
44990;DHT22;30723;51.206;3.326;2023-01-26T07:46:27;6.70;99.90
44990;DHT22;30723;51.206;3.326;2023-01-26T07:48:53;6.60;99.90
44990;DHT22;30723;51.206;3.326;2023-01-26T07:51:19;6.60;99.90
44990;DHT22;30723;51.206;3.326;2023-01-26T07:53:45;6.60;99.90
44990;DHT22;30723;51.206;3.326;2023-01-26T07:56:16;6.60;99.90
44990;DHT22;30723;51.206;3.326;2023-01-26T07:58:52;6.60;99.90
44990;DHT22;30723;51.206;3.326;2023-01-26T08:01:18;6.70;99.90
44990;DHT22;30723;51.206;3.326;2023-01-26T08:03:44;6.70;99.90
44990;DHT22;30723;51.206;3.326;2023-01-26T08:06:11;6.60;99.90
44990;DHT22;30723;51.206;3.326;2023-01-26T08:08:38;6.60;99.90
44990;DHT22;30723;51.206;3.326;2023-01-26T08:11:05;6.60;99.90
44990;DHT22;30723;51.206;3.326;2023-01-26T08:13:32;6.60;99.90
44990;DHT22;30723;51.206;3.326;2023-01-26T08:16:04;6.60;99.90
44990;DHT22;30723;51.206;3.326;2023-01-26T08:18:31;6.60;99.90
44990;DHT22;30723;51.206;3.326;2023-01-26T08:20:58;6.60;99.90
44990;DHT22;30723;51.206;3.326;2023-01-26T08:23:26;6.60;99.90
44990;DHT22;30723;51.206;3.326;2023-01-26T08:25:52;6.60;99.90
44990;DHT22;30723;51.206;3.326;2023-01-26T08:28:17;6.60;99.90
44990;DHT22;30723;51.206;3.326;2023-01-26T08:30:43;6.60;99.90
44990;DHT22;30723;51.206;3.326;2023-01-26T08:33:09;6.60;99.90
44990;DHT22;30723;51.206;3.326;2023-01-26T08:35:36;6.60;99.90
44990;DHT22;30723;51.206;3.326;2023-01-26T08:38:03;6.60;99.90
44990;DHT22;30723;51.206;3.326;2023-01-26T08:40:29;6.60;99.90
44990;DHT22;30723;51.206;3.326;2023-01-26T08:42:59;6.60;99.90
44990;DHT22;30723;51.206;3.326;2023-01-26T08:45:27;6.60;99.90
44990;DHT22;30723;51.206;3.326;2023-01-26T08:47:53;6.60;99.90
44990;DHT22;30723;51.206;3.326;2023-01-26T08:50:18;6.60;99.90
44990;DHT22;30723;51.206;3.326;2023-01-26T08:52:44;6.60;99.90
44990;DHT22;30723;51.206;3.326;2023-01-26T08:55:11;6.60;99.90
44990;DHT22;30723;51.206;3.326;2023-01-26T08:57:36;6.50;99.90
44990;DHT22;30723;51.206;3.326;2023-01-26T09:00:03;6.50;99.90
44990;DHT22;30723;51.206;3.326;2023-01-26T09:02:30;6.50;99.90
44990;DHT22;30723;51.206;3.326;2023-01-26T09:04:57;6.40;99.90
44990;DHT22;30723;51.206;3.326;2023-01-26T09:07:24;6.50;99.90
44990;DHT22;30723;51.206;3.326;2023-01-26T09:09:51;6.50;99.90
44990;DHT22;30723;51.206;3.326;2023-01-26T09:12:18;6.60;99.90
44990;DHT22;30723;51.206;3.326;2023-01-26T09:14:45;6.70;99.90
44990;DHT22;30723;51.206;3.326;2023-01-26T09:17:12;6.70;99.90
44990;DHT22;30723;51.206;3.326;2023-01-26T09:19:38;6.70;99.90
44990;DHT22;30723;51.206;3.326;2023-01-26T09:22:03;6.70;99.90
44990;DHT22;30723;51.206;3.326;2023-01-26T09:24:29;6.70;99.90
44990;DHT22;30723;51.206;3.326;2023-01-26T09:26:55;6.70;99.90
44990;DHT22;30723;51.206;3.326;2023-01-26T09:29:21;6.70;99.90
44990;DHT22;30723;51.206;3.326;2023-01-26T09:31:48;6.70;99.90
44990;DHT22;30723;51.206;3.326;2023-01-26T09:34:14;6.70;99.90
44990;DHT22;30723;51.206;3.326;2023-01-26T09:36:41;6.80;99.90
44990;DHT22;30723;51.206;3.326;2023-01-26T09:39:08;6.90;99.90
44990;DHT22;30723;51.206;3.326;2023-01-26T09:44:32;6.90;99.90
44990;DHT22;30723;51.206;3.326;2023-01-26T09:47:17;6.90;99.90
44990;DHT22;30723;51.206;3.326;2023-01-26T09:49:54;7.00;99.90
44990;DHT22;30723;51.206;3.326;2023-01-26T09:54:59;7.20;99.90
44990;DHT22;30723;51.206;3.326;2023-01-26T09:57:32;7.20;99.90
44990;DHT22;30723;51.206;3.326;2023-01-26T10:00:04;7.20;99.90
44990;DHT22;30723;51.206;3.326;2023-01-26T10:08:02;7.10;99.90
44990;DHT22;30723;51.206;3.326;2023-01-26T10:10:34;7.00;99.90
44990;DHT22;30723;51.206;3.326;2023-01-26T10:13:00;7.00;99.90
44990;DHT22;30723;51.206;3.326;2023-01-26T10:15:37;7.10;99.90
44990;DHT22;30723;51.206;3.326;2023-01-26T10:18:50;7.10;99.90
44990;DHT22;30723;51.206;3.326;2023-01-26T10:20:58;7.20;99.90
44990;DHT22;30723;51.206;3.326;2023-01-26T10:23:31;7.20;99.90
44990;DHT22;30723;51.206;3.326;2023-01-26T10:26:11;7.20;99.90
44990;DHT22;30723;51.206;3.326;2023-01-26T10:28:40;7.30;99.90
44990;DHT22;30723;51.206;3.326;2023-01-26T10:36:33;7.60;99.90
44990;DHT22;30723;51.206;3.326;2023-01-26T10:39:08;7.90;99.90
44990;DHT22;30723;51.206;3.326;2023-01-26T10:41:35;8.80;99.90
44990;DHT22;30723;51.206;3.326;2023-01-26T10:46:45;10.70;99.90
44990;DHT22;30723;51.206;3.326;2023-01-26T10:49:26;11.60;99.90
44990;DHT22;30723;51.206;3.326;2023-01-26T10:52:24;12.80;99.90
44990;DHT22;30723;51.206;3.326;2023-01-26T10:55:11;14.10;99.90
44990;DHT22;30723;51.206;3.326;2023-01-26T10:57:40;14.30;99.90
44990;DHT22;30723;51.206;3.326;2023-01-26T11:00:30;14.70;99.90
44990;DHT22;30723;51.206;3.326;2023-01-26T11:05:38;15.40;99.90
44990;DHT22;30723;51.206;3.326;2023-01-26T11:08:34;15.50;99.90
44990;DHT22;30723;51.206;3.326;2023-01-26T11:11:02;15.40;99.90
44990;DHT22;30723;51.206;3.326;2023-01-26T11:13:29;15.70;99.90
44990;DHT22;30723;51.206;3.326;2023-01-26T11:16:13;15.60;99.90
44990;DHT22;30723;51.206;3.326;2023-01-26T11:18:55;15.70;99.90
44990;DHT22;30723;51.206;3.326;2023-01-26T11:37:46;10.90;99.90
44990;DHT22;30723;51.206;3.326;2023-01-26T11:48:28;10.40;99.90
44990;DHT22;30723;51.206;3.326;2023-01-26T11:56:41;14.00;99.90
44990;DHT22;30723;51.206;3.326;2023-01-26T11:59:13;15.30;99.90
44990;DHT22;30723;51.206;3.326;2023-01-26T12:04:24;17.20;99.90
44990;DHT22;30723;51.206;3.326;2023-01-26T12:07:00;17.20;99.90
44990;DHT22;30723;51.206;3.326;2023-01-26T12:09:48;17.20;99.90
44990;DHT22;30723;51.206;3.326;2023-01-26T12:12:39;18.10;99.90
44990;DHT22;30723;51.206;3.326;2023-01-26T12:15:12;17.60;99.90
44990;DHT22;30723;51.206;3.326;2023-01-26T12:21:10;18.20;99.90
44990;DHT22;30723;51.206;3.326;2023-01-26T12:24:02;19.30;99.90
44990;DHT22;30723;51.206;3.326;2023-01-26T12:26:32;18.80;99.90
44990;DHT22;30723;51.206;3.326;2023-01-26T12:32:02;18.50;99.90
44990;DHT22;30723;51.206;3.326;2023-01-26T12:35:09;18.80;99.90
44990;DHT22;30723;51.206;3.326;2023-01-26T12:37:45;18.90;99.90
44990;DHT22;30723;51.206;3.326;2023-01-26T12:41:03;18.90;99.90
44990;DHT22;30723;51.206;3.326;2023-01-26T12:46:25;18.50;99.90
44990;DHT22;30723;51.206;3.326;2023-01-26T12:49:17;18.20;99.90
44990;DHT22;30723;51.206;3.326;2023-01-26T12:52:29;17.00;99.90
44990;DHT22;30723;51.206;3.326;2023-01-26T12:55:29;15.70;99.90
44990;DHT22;30723;51.206;3.326;2023-01-26T12:58:23;14.30;99.90
44990;DHT22;30723;51.206;3.326;2023-01-26T13:01:09;13.40;99.90
44990;DHT22;30723;51.206;3.326;2023-01-26T13:03:43;12.60;99.90
44990;DHT22;30723;51.206;3.326;2023-01-26T13:11:43;11.90;99.90
44990;DHT22;30723;51.206;3.326;2023-01-26T13:14:30;12.90;99.90
44990;DHT22;30723;51.206;3.326;2023-01-26T13:28:00;11.00;99.90
44990;DHT22;30723;51.206;3.326;2023-01-26T13:35:14;11.30;99.90
44990;DHT22;30723;51.206;3.326;2023-01-26T13:37:55;11.20;99.90
44990;DHT22;30723;51.206;3.326;2023-01-26T13:40:35;11.20;99.90
44990;DHT22;30723;51.206;3.326;2023-01-26T13:48:40;10.80;99.90
44990;DHT22;30723;51.206;3.326;2023-01-26T13:51:16;10.70;99.90
44990;DHT22;30723;51.206;3.326;2023-01-26T13:53:51;10.50;99.90
44990;DHT22;30723;51.206;3.326;2023-01-26T13:56:25;10.40;99.90
44990;DHT22;30723;51.206;3.326;2023-01-26T13:58:52;10.40;99.90
44990;DHT22;30723;51.206;3.326;2023-01-26T14:01:19;10.30;99.90
44990;DHT22;30723;51.206;3.326;2023-01-26T14:03:46;10.60;99.90
44990;DHT22;30723;51.206;3.326;2023-01-26T14:08:51;10.50;99.90
44990;DHT22;30723;51.206;3.326;2023-01-26T14:11:28;10.40;99.90
44990;DHT22;30723;51.206;3.326;2023-01-26T14:14:00;10.20;99.90
44990;DHT22;30723;51.206;3.326;2023-01-26T14:16:34;10.10;99.90
44990;DHT22;30723;51.206;3.326;2023-01-26T14:19:19;10.20;99.90
44990;DHT22;30723;51.206;3.326;2023-01-26T14:21:51;10.40;99.90
44990;DHT22;30723;51.206;3.326;2023-01-26T14:24:36;10.60;99.90
44990;DHT22;30723;51.206;3.326;2023-01-26T14:27:14;10.60;99.90
44990;DHT22;30723;51.206;3.326;2023-01-26T14:29:47;10.50;99.90
44990;DHT22;30723;51.206;3.326;2023-01-26T14:32:15;10.60;99.90
44990;DHT22;30723;51.206;3.326;2023-01-26T14:34:52;10.40;99.90
44990;DHT22;30723;51.206;3.326;2023-01-26T14:37:19;10.20;99.90
44990;DHT22;30723;51.206;3.326;2023-01-26T14:39:46;10.10;99.90
44990;DHT22;30723;51.206;3.326;2023-01-26T14:42:14;10.20;99.90
44990;DHT22;30723;51.206;3.326;2023-01-26T14:44:42;10.10;99.90
44990;DHT22;30723;51.206;3.326;2023-01-26T14:47:25;9.90;99.90
44990;DHT22;30723;51.206;3.326;2023-01-26T14:50:02;9.80;99.90
44990;DHT22;30723;51.206;3.326;2023-01-26T14:52:35;9.80;99.90
44990;DHT22;30723;51.206;3.326;2023-01-26T14:55:11;9.70;99.90
44990;DHT22;30723;51.206;3.326;2023-01-26T14:57:39;9.60;99.90
44990;DHT22;30723;51.206;3.326;2023-01-26T15:00:17;9.50;99.90
44990;DHT22;30723;51.206;3.326;2023-01-26T15:02:47;9.50;99.90
44990;DHT22;30723;51.206;3.326;2023-01-26T15:05:16;9.50;99.90
44990;DHT22;30723;51.206;3.326;2023-01-26T15:08:04;9.50;99.90
44990;DHT22;30723;51.206;3.326;2023-01-26T15:10:38;9.40;99.90
44990;DHT22;30723;51.206;3.326;2023-01-26T15:15:38;8.90;99.90
44990;DHT22;30723;51.206;3.326;2023-01-26T15:20:39;9.00;99.90
44990;DHT22;30723;51.206;3.326;2023-01-26T15:23:21;8.90;99.90
44990;DHT22;30723;51.206;3.326;2023-01-26T15:25:49;8.70;99.90
44990;DHT22;30723;51.206;3.326;2023-01-26T15:28:18;8.70;99.90
44990;DHT22;30723;51.206;3.326;2023-01-26T15:30:49;8.60;99.90
44990;DHT22;30723;51.206;3.326;2023-01-26T15:33:52;8.40;99.90
44990;DHT22;30723;51.206;3.326;2023-01-26T15:39:18;8.30;99.90
44990;DHT22;30723;51.206;3.326;2023-01-26T15:42:10;8.30;99.90
44990;DHT22;30723;51.206;3.326;2023-01-26T15:44:38;8.20;99.90
44990;DHT22;30723;51.206;3.326;2023-01-26T15:47:07;8.20;99.90
44990;DHT22;30723;51.206;3.326;2023-01-26T15:49:33;8.20;99.90
44990;DHT22;30723;51.206;3.326;2023-01-26T15:51:58;8.20;99.90
44990;DHT22;30723;51.206;3.326;2023-01-26T15:54:24;8.10;99.90
44990;DHT22;30723;51.206;3.326;2023-01-26T15:56:50;8.10;99.90
44990;DHT22;30723;51.206;3.326;2023-01-26T15:59:17;8.20;99.90
44990;DHT22;30723;51.206;3.326;2023-01-26T16:01:43;8.30;99.90
44990;DHT22;30723;51.206;3.326;2023-01-26T16:04:12;8.40;99.90
44990;DHT22;30723;51.206;3.326;2023-01-26T16:06:39;8.40;99.90
44990;DHT22;30723;51.206;3.326;2023-01-26T16:09:06;8.40;99.90
44990;DHT22;30723;51.206;3.326;2023-01-26T16:11:35;8.40;99.90
44990;DHT22;30723;51.206;3.326;2023-01-26T16:14:03;8.40;99.90
44990;DHT22;30723;51.206;3.326;2023-01-26T16:16:31;8.30;99.90
44990;DHT22;30723;51.206;3.326;2023-01-26T16:18:57;8.40;99.90
44990;DHT22;30723;51.206;3.326;2023-01-26T16:21:43;8.30;99.90
44990;DHT22;30723;51.206;3.326;2023-01-26T16:24:09;8.30;99.90
44990;DHT22;30723;51.206;3.326;2023-01-26T16:26:37;8.10;99.90
44990;DHT22;30723;51.206;3.326;2023-01-26T16:29:03;8.10;99.90
44990;DHT22;30723;51.206;3.326;2023-01-26T16:31:31;8.00;99.90
44990;DHT22;30723;51.206;3.326;2023-01-26T16:33:58;8.00;99.90
44990;DHT22;30723;51.206;3.326;2023-01-26T16:36:27;8.00;99.90
44990;DHT22;30723;51.206;3.326;2023-01-26T16:38:53;7.90;99.90
44990;DHT22;30723;51.206;3.326;2023-01-26T16:41:30;7.90;99.90
44990;DHT22;30723;51.206;3.326;2023-01-26T16:43:59;8.00;99.90
44990;DHT22;30723;51.206;3.326;2023-01-26T16:46:27;8.00;99.90
44990;DHT22;30723;51.206;3.326;2023-01-26T16:48:53;7.90;99.90
44990;DHT22;30723;51.206;3.326;2023-01-26T16:51:30;7.80;99.90
44990;DHT22;30723;51.206;3.326;2023-01-26T16:54:02;7.80;99.90
44990;DHT22;30723;51.206;3.326;2023-01-26T16:56:28;7.80;99.90
44990;DHT22;30723;51.206;3.326;2023-01-26T16:58:55;7.70;99.90
44990;DHT22;30723;51.206;3.326;2023-01-26T17:01:21;7.70;99.90
44990;DHT22;30723;51.206;3.326;2023-01-26T17:03:48;7.70;99.90
44990;DHT22;30723;51.206;3.326;2023-01-26T17:06:16;7.70;99.90
44990;DHT22;30723;51.206;3.326;2023-01-26T17:08:44;7.70;99.90
44990;DHT22;30723;51.206;3.326;2023-01-26T17:11:22;7.60;99.90
44990;DHT22;30723;51.206;3.326;2023-01-26T17:13:49;7.60;99.90
44990;DHT22;30723;51.206;3.326;2023-01-26T17:16:21;7.60;99.90
44990;DHT22;30723;51.206;3.326;2023-01-26T17:18:49;7.60;99.90
44990;DHT22;30723;51.206;3.326;2023-01-26T17:21:18;7.60;99.90
44990;DHT22;30723;51.206;3.326;2023-01-26T17:23:51;7.60;99.90
44990;DHT22;30723;51.206;3.326;2023-01-26T17:26:20;7.60;99.90
44990;DHT22;30723;51.206;3.326;2023-01-26T17:28:47;7.60;99.90
44990;DHT22;30723;51.206;3.326;2023-01-26T17:31:17;7.60;99.90
44990;DHT22;30723;51.206;3.326;2023-01-26T17:33:45;7.50;99.90
44990;DHT22;30723;51.206;3.326;2023-01-26T17:36:12;7.50;99.90
44990;DHT22;30723;51.206;3.326;2023-01-26T17:38:39;7.50;99.90
44990;DHT22;30723;51.206;3.326;2023-01-26T17:41:07;7.50;99.90
44990;DHT22;30723;51.206;3.326;2023-01-26T17:43:33;7.50;99.90
44990;DHT22;30723;51.206;3.326;2023-01-26T17:46:16;7.40;99.90
44990;DHT22;30723;51.206;3.326;2023-01-26T17:48:44;7.30;99.90
44990;DHT22;30723;51.206;3.326;2023-01-26T17:51:18;7.20;99.90
44990;DHT22;30723;51.206;3.326;2023-01-26T17:53:47;7.10;99.90
44990;DHT22;30723;51.206;3.326;2023-01-26T17:56:17;7.10;99.90